sensor_id;sensor_type;location;lat;lon;timestamp;temperature;humidity
2002;DHT22;1003;48.002;7.788;2023-02-10T00:01:03;-3.50;99.90
2002;DHT22;1003;48.002;7.788;2023-02-10T00:03:31;-3.60;99.90
2002;DHT22;1003;48.002;7.788;2023-02-10T00:05:59;-3.70;99.90
2002;DHT22;1003;48.002;7.788;2023-02-10T00:08:29;-3.70;99.90
2002;DHT22;1003;48.002;7.788;2023-02-10T00:10:57;-3.80;99.90
2002;DHT22;1003;48.002;7.788;2023-02-10T00:13:25;-3.80;99.90
2002;DHT22;1003;48.002;7.788;2023-02-10T00:15:53;-3.80;99.90
2002;DHT22;1003;48.002;7.788;2023-02-10T00:18:20;-3.80;99.90
2002;DHT22;1003;48.002;7.788;2023-02-10T00:20:47;-3.80;99.90
2002;DHT22;1003;48.002;7.788;2023-02-10T00:23:14;-3.80;99.90
2002;DHT22;1003;48.002;7.788;2023-02-10T00:25:43;-3.90;99.90
2002;DHT22;1003;48.002;7.788;2023-02-10T00:28:10;-3.90;99.90
2002;DHT22;1003;48.002;7.788;2023-02-10T00:30:38;-3.80;99.90
2002;DHT22;1003;48.002;7.788;2023-02-10T00:33:05;-3.70;99.90
2002;DHT22;1003;48.002;7.788;2023-02-10T00:35:33;-3.60;99.90
2002;DHT22;1003;48.002;7.788;2023-02-10T00:38:00;-3.60;99.90
2002;DHT22;1003;48.002;7.788;2023-02-10T00:40:27;-3.50;99.90
2002;DHT22;1003;48.002;7.788;2023-02-10T00:42:55;-3.50;99.90
2002;DHT22;1003;48.002;7.788;2023-02-10T00:45:22;-3.40;99.90
2002;DHT22;1003;48.002;7.788;2023-02-10T00:47:49;-3.40;99.90
2002;DHT22;1003;48.002;7.788;2023-02-10T00:50:17;-3.40;99.90
2002;DHT22;1003;48.002;7.788;2023-02-10T00:52:44;-3.30;99.90
2002;DHT22;1003;48.002;7.788;2023-02-10T00:55:11;-3.30;99.90
2002;DHT22;1003;48.002;7.788;2023-02-10T00:57:38;-3.10;99.90
2002;DHT22;1003;48.002;7.788;2023-02-10T01:00:07;-2.90;99.90
2002;DHT22;1003;48.002;7.788;2023-02-10T01:02:35;-2.80;99.90
2002;DHT22;1003;48.002;7.788;2023-02-10T01:05:03;-2.80;99.90
2002;DHT22;1003;48.002;7.788;2023-02-10T01:07:30;-2.70;99.90
2002;DHT22;1003;48.002;7.788;2023-02-10T01:09:57;-2.70;99.90
2002;DHT22;1003;48.002;7.788;2023-02-10T01:12:24;-2.70;99.90
2002;DHT22;1003;48.002;7.788;2023-02-10T01:14:51;-2.70;99.90
2002;DHT22;1003;48.002;7.788;2023-02-10T01:17:20;-2.70;99.90
2002;DHT22;1003;48.002;7.788;2023-02-10T01:19:47;-2.60;99.90
2002;DHT22;1003;48.002;7.788;2023-02-10T01:22:16;-2.60;99.90
2002;DHT22;1003;48.002;7.788;2023-02-10T01:24:43;-2.60;99.90
2002;DHT22;1003;48.002;7.788;2023-02-10T01:27:10;-2.50;99.90
2002;DHT22;1003;48.002;7.788;2023-02-10T01:29:37;-2.40;99.90
2002;DHT22;1003;48.002;7.788;2023-02-10T01:32:05;-2.40;99.90
2002;DHT22;1003;48.002;7.788;2023-02-10T01:34:33;-2.30;99.90
2002;DHT22;1003;48.002;7.788;2023-02-10T01:37:02;-2.30;99.90
2002;DHT22;1003;48.002;7.788;2023-02-10T01:39:29;-2.30;99.90
2002;DHT22;1003;48.002;7.788;2023-02-10T01:41:57;-2.30;99.90
2002;DHT22;1003;48.002;7.788;2023-02-10T01:47:59;-2.40;99.90
2002;DHT22;1003;48.002;7.788;2023-02-10T01:50:30;-2.50;99.90
2002;DHT22;1003;48.002;7.788;2023-02-10T01:53:04;-2.60;99.90
2002;DHT22;1003;48.002;7.788;2023-02-10T01:55:33;-2.70;99.90
2002;DHT22;1003;48.002;7.788;2023-02-10T01:58:05;-2.80;99.90
2002;DHT22;1003;48.002;7.788;2023-02-10T02:00:36;-2.80;99.90
2002;DHT22;1003;48.002;7.788;2023-02-10T02:03:04;-3.00;99.90
2002;DHT22;1003;48.002;7.788;2023-02-10T02:05:35;-3.10;99.90
2002;DHT22;1003;48.002;7.788;2023-02-10T02:08:07;-3.10;99.90
2002;DHT22;1003;48.002;7.788;2023-02-10T02:14:00;-3.00;99.90
2002;DHT22;1003;48.002;7.788;2023-02-10T02:16:49;-3.00;99.90
2002;DHT22;1003;48.002;7.788;2023-02-10T02:19:50;-3.00;99.90
2002;DHT22;1003;48.002;7.788;2023-02-10T02:23:15;-3.10;99.90
2002;DHT22;1003;48.002;7.788;2023-02-10T02:29:29;-3.20;99.90
2002;DHT22;1003;48.002;7.788;2023-02-10T02:32:15;-3.50;99.90
2002;DHT22;1003;48.002;7.788;2023-02-10T02:34:49;-3.70;99.90
2002;DHT22;1003;48.002;7.788;2023-02-10T02:37:23;-3.80;99.90
2002;DHT22;1003;48.002;7.788;2023-02-10T02:39:55;-3.90;99.90
2002;DHT22;1003;48.002;7.788;2023-02-10T02:42:24;-4.00;99.90
2002;DHT22;1003;48.002;7.788;2023-02-10T02:44:55;-4.20;99.90
2002;DHT22;1003;48.002;7.788;2023-02-10T02:47:47;-4.20;99.90
2002;DHT22;1003;48.002;7.788;2023-02-10T02:50:26;-4.30;99.90
2002;DHT22;1003;48.002;7.788;2023-02-10T02:53:20;-4.40;99.90
2002;DHT22;1003;48.002;7.788;2023-02-10T02:56:02;-4.50;99.90
2002;DHT22;1003;48.002;7.788;2023-02-10T02:58:42;-4.60;99.90
2002;DHT22;1003;48.002;7.788;2023-02-10T03:01:21;-4.60;99.90
2002;DHT22;1003;48.002;7.788;2023-02-10T03:03:54;-4.60;99.90
2002;DHT22;1003;48.002;7.788;2023-02-10T03:06:23;-4.70;99.90
2002;DHT22;1003;48.002;7.788;2023-02-10T03:08:51;-4.70;99.90
2002;DHT22;1003;48.002;7.788;2023-02-10T03:11:19;-4.80;99.90
2002;DHT22;1003;48.002;7.788;2023-02-10T03:13:46;-4.70;99.90
2002;DHT22;1003;48.002;7.788;2023-02-10T03:16:13;-4.70;99.90
2002;DHT22;1003;48.002;7.788;2023-02-10T03:18:40;-4.60;99.90
2002;DHT22;1003;48.002;7.788;2023-02-10T03:21:08;-4.60;99.90
2002;DHT22;1003;48.002;7.788;2023-02-10T03:23:35;-4.70;99.90
2002;DHT22;1003;48.002;7.788;2023-02-10T03:26:03;-4.70;99.90
2002;DHT22;1003;48.002;7.788;2023-02-10T03:28:30;-4.70;99.90
2002;DHT22;1003;48.002;7.788;2023-02-10T03:30:57;-4.80;99.90
2002;DHT22;1003;48.002;7.788;2023-02-10T03:33:27;-4.90;99.90
2002;DHT22;1003;48.002;7.788;2023-02-10T03:35:54;-4.90;99.90
2002;DHT22;1003;48.002;7.788;2023-02-10T03:38:24;-4.90;99.90
2002;DHT22;1003;48.002;7.788;2023-02-10T03:40:52;-4.90;99.90
2002;DHT22;1003;48.002;7.788;2023-02-10T03:43:21;-4.90;99.90
2002;DHT22;1003;48.002;7.788;2023-02-10T03:45:48;-4.90;99.90
2002;DHT22;1003;48.002;7.788;2023-02-10T03:48:16;-4.90;99.90
2002;DHT22;1003;48.002;7.788;2023-02-10T03:50:43;-5.00;99.90
2002;DHT22;1003;48.002;7.788;2023-02-10T03:53:11;-5.00;99.90
2002;DHT22;1003;48.002;7.788;2023-02-10T03:55:39;-5.10;99.90
2002;DHT22;1003;48.002;7.788;2023-02-10T03:58:06;-5.10;99.90
2002;DHT22;1003;48.002;7.788;2023-02-10T04:00:33;-5.20;99.90
2002;DHT22;1003;48.002;7.788;2023-02-10T04:03:00;-5.20;99.90
2002;DHT22;1003;48.002;7.788;2023-02-10T04:05:27;-5.10;99.90
2002;DHT22;1003;48.002;7.788;2023-02-10T04:07:54;-5.00;99.90
2002;DHT22;1003;48.002;7.788;2023-02-10T04:10:21;-4.90;99.90
2002;DHT22;1003;48.002;7.788;2023-02-10T04:12:50;-4.70;99.90
2002;DHT22;1003;48.002;7.788;2023-02-10T04:15:17;-4.60;99.90
2002;DHT22;1003;48.002;7.788;2023-02-10T04:17:44;-4.60;99.90
2002;DHT22;1003;48.002;7.788;2023-02-10T04:20:12;-4.60;99.90
2002;DHT22;1003;48.002;7.788;2023-02-10T04:22:39;-4.60;99.90
2002;DHT22;1003;48.002;7.788;2023-02-10T04:25:08;-4.50;99.90
2002;DHT22;1003;48.002;7.788;2023-02-10T04:27:35;-4.50;99.90
2002;DHT22;1003;48.002;7.788;2023-02-10T04:30:05;-4.50;99.90
2002;DHT22;1003;48.002;7.788;2023-02-10T04:32:33;-4.40;99.90
2002;DHT22;1003;48.002;7.788;2023-02-10T04:35:00;-4.30;99.90
2002;DHT22;1003;48.002;7.788;2023-02-10T04:37:27;-4.40;99.90
2002;DHT22;1003;48.002;7.788;2023-02-10T04:39:54;-4.40;99.90
2002;DHT22;1003;48.002;7.788;2023-02-10T04:42:21;-4.30;99.90
2002;DHT22;1003;48.002;7.788;2023-02-10T04:44:55;-4.30;99.90
2002;DHT22;1003;48.002;7.788;2023-02-10T04:47:24;-4.30;99.90
2002;DHT22;1003;48.002;7.788;2023-02-10T04:49:51;-4.30;99.90
2002;DHT22;1003;48.002;7.788;2023-02-10T04:52:19;-4.30;99.90
2002;DHT22;1003;48.002;7.788;2023-02-10T04:54:46;-4.20;99.90
2002;DHT22;1003;48.002;7.788;2023-02-10T04:57:13;-4.20;99.90
2002;DHT22;1003;48.002;7.788;2023-02-10T04:59:40;-4.20;99.90
2002;DHT22;1003;48.002;7.788;2023-02-10T05:02:07;-4.10;99.90
2002;DHT22;1003;48.002;7.788;2023-02-10T05:04:36;-4.10;99.90
2002;DHT22;1003;48.002;7.788;2023-02-10T05:07:03;-4.10;99.90
2002;DHT22;1003;48.002;7.788;2023-02-10T05:09:30;-4.10;99.90
2002;DHT22;1003;48.002;7.788;2023-02-10T05:11:57;-4.20;99.90
2002;DHT22;1003;48.002;7.788;2023-02-10T05:14:24;-4.30;99.90
2002;DHT22;1003;48.002;7.788;2023-02-10T05:16:51;-4.40;99.90
2002;DHT22;1003;48.002;7.788;2023-02-10T05:19:18;-4.50;99.90
2002;DHT22;1003;48.002;7.788;2023-02-10T05:21:47;-4.50;99.90
2002;DHT22;1003;48.002;7.788;2023-02-10T05:24:14;-4.50;99.90
2002;DHT22;1003;48.002;7.788;2023-02-10T05:26:41;-4.60;99.90
2002;DHT22;1003;48.002;7.788;2023-02-10T05:29:09;-4.50;99.90
2002;DHT22;1003;48.002;7.788;2023-02-10T05:31:36;-4.50;99.90
2002;DHT22;1003;48.002;7.788;2023-02-10T05:34:03;-4.40;99.90
2002;DHT22;1003;48.002;7.788;2023-02-10T05:36:30;-4.30;99.90
2002;DHT22;1003;48.002;7.788;2023-02-10T05:38:58;-4.20;99.90
2002;DHT22;1003;48.002;7.788;2023-02-10T05:41:43;-4.20;99.90
2002;DHT22;1003;48.002;7.788;2023-02-10T05:44:10;-4.10;99.90
2002;DHT22;1003;48.002;7.788;2023-02-10T05:46:37;-4.10;99.90
2002;DHT22;1003;48.002;7.788;2023-02-10T05:49:04;-4.10;99.90
2002;DHT22;1003;48.002;7.788;2023-02-10T05:51:32;-4.10;99.90
2002;DHT22;1003;48.002;7.788;2023-02-10T05:54:00;-4.20;99.90
2002;DHT22;1003;48.002;7.788;2023-02-10T05:56:27;-4.40;99.90
2002;DHT22;1003;48.002;7.788;2023-02-10T05:58:54;-4.60;99.90
2002;DHT22;1003;48.002;7.788;2023-02-10T06:01:22;-4.60;99.90
2002;DHT22;1003;48.002;7.788;2023-02-10T06:03:49;-4.70;99.90
2002;DHT22;1003;48.002;7.788;2023-02-10T06:06:16;-4.90;99.90
2002;DHT22;1003;48.002;7.788;2023-02-10T06:08:43;-5.00;99.90
2002;DHT22;1003;48.002;7.788;2023-02-10T06:11:12;-5.10;99.90
2002;DHT22;1003;48.002;7.788;2023-02-10T06:13:39;-5.10;99.90
2002;DHT22;1003;48.002;7.788;2023-02-10T06:16:07;-5.20;99.90
2002;DHT22;1003;48.002;7.788;2023-02-10T06:18:37;-5.30;99.90
2002;DHT22;1003;48.002;7.788;2023-02-10T06:21:04;-5.30;99.90
2002;DHT22;1003;48.002;7.788;2023-02-10T06:23:32;-5.30;99.90
2002;DHT22;1003;48.002;7.788;2023-02-10T06:25:59;-5.40;99.90
2002;DHT22;1003;48.002;7.788;2023-02-10T06:28:27;-5.50;99.90
2002;DHT22;1003;48.002;7.788;2023-02-10T06:30:55;-5.60;99.90
2002;DHT22;1003;48.002;7.788;2023-02-10T06:33:22;-5.60;99.90
2002;DHT22;1003;48.002;7.788;2023-02-10T06:35:49;-5.60;99.90
2002;DHT22;1003;48.002;7.788;2023-02-10T06:38:16;-5.70;99.90
2002;DHT22;1003;48.002;7.788;2023-02-10T06:40:44;-5.70;99.90
2002;DHT22;1003;48.002;7.788;2023-02-10T06:43:11;-5.70;99.90
2002;DHT22;1003;48.002;7.788;2023-02-10T06:45:39;-5.60;99.90
2002;DHT22;1003;48.002;7.788;2023-02-10T06:48:06;-5.60;99.90
2002;DHT22;1003;48.002;7.788;2023-02-10T06:50:34;-5.50;99.90
2002;DHT22;1003;48.002;7.788;2023-02-10T06:53:01;-5.50;99.90
2002;DHT22;1003;48.002;7.788;2023-02-10T06:55:28;-5.40;99.90
2002;DHT22;1003;48.002;7.788;2023-02-10T06:57:58;-5.40;99.90
2002;DHT22;1003;48.002;7.788;2023-02-10T07:00:25;-5.40;99.90
2002;DHT22;1003;48.002;7.788;2023-02-10T07:02:54;-5.30;99.90
2002;DHT22;1003;48.002;7.788;2023-02-10T07:05:21;-5.30;99.90
2002;DHT22;1003;48.002;7.788;2023-02-10T07:07:48;-5.30;99.90
2002;DHT22;1003;48.002;7.788;2023-02-10T07:10:16;-5.30;99.90
2002;DHT22;1003;48.002;7.788;2023-02-10T07:12:44;-5.30;99.90
2002;DHT22;1003;48.002;7.788;2023-02-10T07:15:12;-5.30;99.90
2002;DHT22;1003;48.002;7.788;2023-02-10T07:17:43;-5.20;99.90
2002;DHT22;1003;48.002;7.788;2023-02-10T07:20:13;-5.10;99.90
2002;DHT22;1003;48.002;7.788;2023-02-10T07:22:40;-4.90;99.90
2002;DHT22;1003;48.002;7.788;2023-02-10T07:25:07;-4.80;99.90
2002;DHT22;1003;48.002;7.788;2023-02-10T07:27:36;-4.80;99.90
2002;DHT22;1003;48.002;7.788;2023-02-10T07:30:04;-4.70;99.90
2002;DHT22;1003;48.002;7.788;2023-02-10T07:32:31;-4.60;99.90
2002;DHT22;1003;48.002;7.788;2023-02-10T07:34:58;-4.60;99.90
2002;DHT22;1003;48.002;7.788;2023-02-10T07:37:27;-4.50;99.90
2002;DHT22;1003;48.002;7.788;2023-02-10T07:39:54;-4.40;99.90
2002;DHT22;1003;48.002;7.788;2023-02-10T07:42:21;-4.40;99.90
2002;DHT22;1003;48.002;7.788;2023-02-10T07:44:48;-4.30;99.90
2002;DHT22;1003;48.002;7.788;2023-02-10T07:47:15;-4.20;99.90
2002;DHT22;1003;48.002;7.788;2023-02-10T07:49:43;-4.10;99.90
2002;DHT22;1003;48.002;7.788;2023-02-10T07:52:10;-4.00;99.90
2002;DHT22;1003;48.002;7.788;2023-02-10T07:54:39;-3.90;99.90
2002;DHT22;1003;48.002;7.788;2023-02-10T07:57:07;-3.80;99.90
2002;DHT22;1003;48.002;7.788;2023-02-10T07:59:34;-3.70;99.90
2002;DHT22;1003;48.002;7.788;2023-02-10T08:02:01;-3.60;99.90
2002;DHT22;1003;48.002;7.788;2023-02-10T08:04:30;-3.50;99.90
2002;DHT22;1003;48.002;7.788;2023-02-10T08:07:01;-3.40;99.90
2002;DHT22;1003;48.002;7.788;2023-02-10T08:09:29;-3.30;99.90
2002;DHT22;1003;48.002;7.788;2023-02-10T08:11:57;-3.20;99.90
2002;DHT22;1003;48.002;7.788;2023-02-10T08:14:25;-3.10;99.90
2002;DHT22;1003;48.002;7.788;2023-02-10T08:16:52;-3.00;99.90
2002;DHT22;1003;48.002;7.788;2023-02-10T08:19:21;-2.90;99.90
2002;DHT22;1003;48.002;7.788;2023-02-10T08:21:48;-2.80;99.90
2002;DHT22;1003;48.002;7.788;2023-02-10T08:24:18;-2.70;99.90
2002;DHT22;1003;48.002;7.788;2023-02-10T08:26:45;-2.70;99.90
2002;DHT22;1003;48.002;7.788;2023-02-10T08:29:14;-2.50;99.90
2002;DHT22;1003;48.002;7.788;2023-02-10T08:31:41;-2.40;99.90
2002;DHT22;1003;48.002;7.788;2023-02-10T08:34:14;-2.30;99.90
2002;DHT22;1003;48.002;7.788;2023-02-10T08:36:42;-2.20;99.90
2002;DHT22;1003;48.002;7.788;2023-02-10T08:39:09;-2.10;99.90
2002;DHT22;1003;48.002;7.788;2023-02-10T08:41:37;-2.00;99.90
2002;DHT22;1003;48.002;7.788;2023-02-10T08:44:04;-1.90;99.90
2002;DHT22;1003;48.002;7.788;2023-02-10T08:46:34;-1.80;99.90
2002;DHT22;1003;48.002;7.788;2023-02-10T08:49:01;-1.70;99.90
2002;DHT22;1003;48.002;7.788;2023-02-10T08:51:28;-1.60;99.90
2002;DHT22;1003;48.002;7.788;2023-02-10T08:53:59;-1.50;99.90
2002;DHT22;1003;48.002;7.788;2023-02-10T08:56:27;-1.40;99.90
2002;DHT22;1003;48.002;7.788;2023-02-10T08:58:54;-1.20;99.90
2002;DHT22;1003;48.002;7.788;2023-02-10T09:01:23;-1.10;99.90
2002;DHT22;1003;48.002;7.788;2023-02-10T09:03:53;-1.00;99.90
2002;DHT22;1003;48.002;7.788;2023-02-10T09:06:24;-0.80;99.90
2002;DHT22;1003;48.002;7.788;2023-02-10T09:08:53;-0.60;99.90
2002;DHT22;1003;48.002;7.788;2023-02-10T09:11:21;-0.40;99.90
2002;DHT22;1003;48.002;7.788;2023-02-10T09:13:50;-0.10;99.90
2002;DHT22;1003;48.002;7.788;2023-02-10T09:16:17;0.00;99.90
2002;DHT22;1003;48.002;7.788;2023-02-10T09:18:44;0.00;99.90
2002;DHT22;1003;48.002;7.788;2023-02-10T09:21:13;0.10;99.90
2002;DHT22;1003;48.002;7.788;2023-02-10T09:23:40;0.10;99.90
2002;DHT22;1003;48.002;7.788;2023-02-10T09:26:07;0.20;99.90
2002;DHT22;1003;48.002;7.788;2023-02-10T09:28:34;0.20;99.90
2002;DHT22;1003;48.002;7.788;2023-02-10T09:31:04;0.30;99.90
2002;DHT22;1003;48.002;7.788;2023-02-10T09:33:32;0.50;99.90
2002;DHT22;1003;48.002;7.788;2023-02-10T09:36:01;0.60;99.90
2002;DHT22;1003;48.002;7.788;2023-02-10T09:38:30;0.70;99.90
2002;DHT22;1003;48.002;7.788;2023-02-10T09:41:05;0.80;99.90
2002;DHT22;1003;48.002;7.788;2023-02-10T09:43:59;0.90;99.90
2002;DHT22;1003;48.002;7.788;2023-02-10T09:46:47;1.00;99.90
2002;DHT22;1003;48.002;7.788;2023-02-10T09:49:43;1.10;99.90
2002;DHT22;1003;48.002;7.788;2023-02-10T09:52:26;1.30;99.90
2002;DHT22;1003;48.002;7.788;2023-02-10T09:55:11;1.40;99.90
2002;DHT22;1003;48.002;7.788;2023-02-10T09:57:43;1.50;99.90
2002;DHT22;1003;48.002;7.788;2023-02-10T10:00:24;1.60;99.90
2002;DHT22;1003;48.002;7.788;2023-02-10T10:02:56;1.70;99.90
2002;DHT22;1003;48.002;7.788;2023-02-10T10:05:37;1.90;99.90
2002;DHT22;1003;48.002;7.788;2023-02-10T10:08:17;1.90;99.90
2002;DHT22;1003;48.002;7.788;2023-02-10T10:10:51;1.90;99.90
2002;DHT22;1003;48.002;7.788;2023-02-10T10:13:23;2.00;99.90
2002;DHT22;1003;48.002;7.788;2023-02-10T10:16:15;2.10;99.90
2002;DHT22;1003;48.002;7.788;2023-02-10T10:19:01;2.40;99.90
2002;DHT22;1003;48.002;7.788;2023-02-10T10:21:42;2.50;99.90
2002;DHT22;1003;48.002;7.788;2023-02-10T10:24:30;2.50;99.90
2002;DHT22;1003;48.002;7.788;2023-02-10T10:27:20;2.60;99.90
2002;DHT22;1003;48.002;7.788;2023-02-10T10:30:04;2.70;99.90
2002;DHT22;1003;48.002;7.788;2023-02-10T10:32:42;2.60;99.90
2002;DHT22;1003;48.002;7.788;2023-02-10T10:35:15;2.70;99.90
2002;DHT22;1003;48.002;7.788;2023-02-10T10:37:44;2.80;99.90
2002;DHT22;1003;48.002;7.788;2023-02-10T10:40:17;2.90;99.90
2002;DHT22;1003;48.002;7.788;2023-02-10T10:42:51;3.00;99.90
2002;DHT22;1003;48.002;7.788;2023-02-10T10:45:27;3.00;99.90
2002;DHT22;1003;48.002;7.788;2023-02-10T10:48:04;3.10;99.90
2002;DHT22;1003;48.002;7.788;2023-02-10T10:50:35;3.10;99.90
2002;DHT22;1003;48.002;7.788;2023-02-10T10:53:11;3.20;99.90
2002;DHT22;1003;48.002;7.788;2023-02-10T10:55:44;3.20;99.90
2002;DHT22;1003;48.002;7.788;2023-02-10T10:58:23;3.10;99.90
2002;DHT22;1003;48.002;7.788;2023-02-10T11:00:55;3.10;99.90
2002;DHT22;1003;48.002;7.788;2023-02-10T11:03:24;3.20;99.90
2002;DHT22;1003;48.002;7.788;2023-02-10T11:06:00;3.30;99.90
2002;DHT22;1003;48.002;7.788;2023-02-10T11:08:35;3.40;99.90
2002;DHT22;1003;48.002;7.788;2023-02-10T11:11:08;3.50;99.90
2002;DHT22;1003;48.002;7.788;2023-02-10T11:13:48;3.60;99.90
2002;DHT22;1003;48.002;7.788;2023-02-10T11:16:20;3.60;99.90
2002;DHT22;1003;48.002;7.788;2023-02-10T11:18:53;3.50;99.90
2002;DHT22;1003;48.002;7.788;2023-02-10T11:21:32;3.50;99.90
2002;DHT22;1003;48.002;7.788;2023-02-10T11:24:01;3.70;99.90
2002;DHT22;1003;48.002;7.788;2023-02-10T11:26:29;3.80;99.90
2002;DHT22;1003;48.002;7.788;2023-02-10T11:29:08;3.90;99.90
2002;DHT22;1003;48.002;7.788;2023-02-10T11:31:37;4.00;99.90
2002;DHT22;1003;48.002;7.788;2023-02-10T11:34:19;4.10;99.90
2002;DHT22;1003;48.002;7.788;2023-02-10T11:36:48;4.10;99.90
2002;DHT22;1003;48.002;7.788;2023-02-10T11:39:20;4.20;99.90
2002;DHT22;1003;48.002;7.788;2023-02-10T11:41:51;4.20;99.90
2002;DHT22;1003;48.002;7.788;2023-02-10T11:44:27;4.10;99.90
2002;DHT22;1003;48.002;7.788;2023-02-10T11:46:58;4.20;99.90
2002;DHT22;1003;48.002;7.788;2023-02-10T11:49:28;4.00;99.90
2002;DHT22;1003;48.002;7.788;2023-02-10T11:52:00;4.10;99.90
2002;DHT22;1003;48.002;7.788;2023-02-10T11:54:29;4.40;99.90
2002;DHT22;1003;48.002;7.788;2023-02-10T11:57:09;4.60;99.90
2002;DHT22;1003;48.002;7.788;2023-02-10T12:00:12;4.70;99.90
2002;DHT22;1003;48.002;7.788;2023-02-10T12:06:14;4.70;99.90
2002;DHT22;1003;48.002;7.788;2023-02-10T12:08:54;5.00;99.90
2002;DHT22;1003;48.002;7.788;2023-02-10T12:11:30;5.10;99.90
2002;DHT22;1003;48.002;7.788;2023-02-10T12:14:16;4.90;99.90
2002;DHT22;1003;48.002;7.788;2023-02-10T12:17:02;4.80;99.90
2002;DHT22;1003;48.002;7.788;2023-02-10T12:19:59;4.90;99.90
2002;DHT22;1003;48.002;7.788;2023-02-10T12:22:57;4.90;99.90
2002;DHT22;1003;48.002;7.788;2023-02-10T12:25:41;5.00;99.90
2002;DHT22;1003;48.002;7.788;2023-02-10T12:28:22;5.20;99.90
2002;DHT22;1003;48.002;7.788;2023-02-10T12:31:04;5.20;99.90
2002;DHT22;1003;48.002;7.788;2023-02-10T12:33:45;5.40;99.90
2002;DHT22;1003;48.002;7.788;2023-02-10T12:36:30;5.20;99.90
2002;DHT22;1003;48.002;7.788;2023-02-10T12:39:12;5.00;99.90
2002;DHT22;1003;48.002;7.788;2023-02-10T12:41:49;5.20;99.90
2002;DHT22;1003;48.002;7.788;2023-02-10T12:44:34;5.30;99.90
2002;DHT22;1003;48.002;7.788;2023-02-10T12:47:22;5.40;99.90
2002;DHT22;1003;48.002;7.788;2023-02-10T12:50:19;5.40;99.90
2002;DHT22;1003;48.002;7.788;2023-02-10T12:52:58;5.40;99.90
2002;DHT22;1003;48.002;7.788;2023-02-10T12:55:37;5.50;99.90
2002;DHT22;1003;48.002;7.788;2023-02-10T12:58:15;5.50;99.90
2002;DHT22;1003;48.002;7.788;2023-02-10T13:00:48;5.50;99.90
2002;DHT22;1003;48.002;7.788;2023-02-10T13:03:22;5.50;99.90
2002;DHT22;1003;48.002;7.788;2023-02-10T13:06:00;5.50;99.90
2002;DHT22;1003;48.002;7.788;2023-02-10T13:08:42;5.50;99.90
2002;DHT22;1003;48.002;7.788;2023-02-10T13:11:18;5.60;99.90
2002;DHT22;1003;48.002;7.788;2023-02-10T13:13:52;5.70;99.90
2002;DHT22;1003;48.002;7.788;2023-02-10T13:16:23;5.70;99.90
2002;DHT22;1003;48.002;7.788;2023-02-10T13:18:59;5.80;99.90
2002;DHT22;1003;48.002;7.788;2023-02-10T13:21:38;5.80;99.90
2002;DHT22;1003;48.002;7.788;2023-02-10T13:24:15;5.90;99.90
2002;DHT22;1003;48.002;7.788;2023-02-10T13:27:02;6.00;99.90
2002;DHT22;1003;48.002;7.788;2023-02-10T13:29:45;6.00;99.90
2002;DHT22;1003;48.002;7.788;2023-02-10T13:32:28;6.00;99.90
2002;DHT22;1003;48.002;7.788;2023-02-10T13:35:14;6.00;99.90
2002;DHT22;1003;48.002;7.788;2023-02-10T13:37:48;6.00;99.90
2002;DHT22;1003;48.002;7.788;2023-02-10T13:40:19;6.20;99.90
2002;DHT22;1003;48.002;7.788;2023-02-10T13:42:51;6.20;99.90
2002;DHT22;1003;48.002;7.788;2023-02-10T13:45:23;6.30;99.90
2002;DHT22;1003;48.002;7.788;2023-02-10T13:47:54;6.30;99.90
2002;DHT22;1003;48.002;7.788;2023-02-10T13:50:27;6.50;99.90
2002;DHT22;1003;48.002;7.788;2023-02-10T13:53:00;6.70;99.90
2002;DHT22;1003;48.002;7.788;2023-02-10T13:55:43;6.50;99.90
2002;DHT22;1003;48.002;7.788;2023-02-10T13:58:30;6.40;99.90
2002;DHT22;1003;48.002;7.788;2023-02-10T14:01:00;6.40;99.90
2002;DHT22;1003;48.002;7.788;2023-02-10T14:03:29;6.30;99.90
2002;DHT22;1003;48.002;7.788;2023-02-10T14:05:59;6.40;99.90
2002;DHT22;1003;48.002;7.788;2023-02-10T14:08:33;6.40;99.90
2002;DHT22;1003;48.002;7.788;2023-02-10T14:11:04;6.40;99.90
2002;DHT22;1003;48.002;7.788;2023-02-10T14:13:58;6.30;99.90
2002;DHT22;1003;48.002;7.788;2023-02-10T14:16:29;6.20;99.90
2002;DHT22;1003;48.002;7.788;2023-02-10T14:19:00;6.00;99.90
2002;DHT22;1003;48.002;7.788;2023-02-10T14:21:37;5.90;99.90
2002;DHT22;1003;48.002;7.788;2023-02-10T14:24:12;5.90;99.90
2002;DHT22;1003;48.002;7.788;2023-02-10T14:26:45;5.70;99.90
2002;DHT22;1003;48.002;7.788;2023-02-10T14:29:15;5.80;99.90
2002;DHT22;1003;48.002;7.788;2023-02-10T14:31:48;6.10;99.90
2002;DHT22;1003;48.002;7.788;2023-02-10T14:34:20;6.20;99.90
2002;DHT22;1003;48.002;7.788;2023-02-10T14:36:50;6.10;99.90
2002;DHT22;1003;48.002;7.788;2023-02-10T14:39:22;5.90;99.90
2002;DHT22;1003;48.002;7.788;2023-02-10T14:41:50;6.00;99.90
2002;DHT22;1003;48.002;7.788;2023-02-10T14:44:25;6.10;99.90
2002;DHT22;1003;48.002;7.788;2023-02-10T14:46:56;6.00;99.90
2002;DHT22;1003;48.002;7.788;2023-02-10T14:49:23;6.00;99.90
2002;DHT22;1003;48.002;7.788;2023-02-10T14:51:51;6.30;99.90
2002;DHT22;1003;48.002;7.788;2023-02-10T14:54:21;6.40;99.90
2002;DHT22;1003;48.002;7.788;2023-02-10T14:56:53;6.30;99.90
2002;DHT22;1003;48.002;7.788;2023-02-10T14:59:23;6.10;99.90
2002;DHT22;1003;48.002;7.788;2023-02-10T15:01:53;6.10;99.90
2002;DHT22;1003;48.002;7.788;2023-02-10T15:04:21;6.10;99.90
2002;DHT22;1003;48.002;7.788;2023-02-10T15:06:52;5.80;99.90
2002;DHT22;1003;48.002;7.788;2023-02-10T15:09:25;5.60;99.90
2002;DHT22;1003;48.002;7.788;2023-02-10T15:11:59;5.40;99.90
2002;DHT22;1003;48.002;7.788;2023-02-10T15:14:42;5.40;99.90
2002;DHT22;1003;48.002;7.788;2023-02-10T15:17:15;5.30;99.90
2002;DHT22;1003;48.002;7.788;2023-02-10T15:19:53;5.10;99.90
2002;DHT22;1003;48.002;7.788;2023-02-10T15:22:36;5.00;99.90
2002;DHT22;1003;48.002;7.788;2023-02-10T15:25:30;4.90;99.90
2002;DHT22;1003;48.002;7.788;2023-02-10T15:28:17;4.70;99.90
2002;DHT22;1003;48.002;7.788;2023-02-10T15:30:56;4.70;99.90
2002;DHT22;1003;48.002;7.788;2023-02-10T15:33:28;4.60;99.90
2002;DHT22;1003;48.002;7.788;2023-02-10T15:36:10;4.50;99.90
2002;DHT22;1003;48.002;7.788;2023-02-10T15:38:49;4.50;99.90
2002;DHT22;1003;48.002;7.788;2023-02-10T15:41:34;4.50;99.90
2002;DHT22;1003;48.002;7.788;2023-02-10T15:44:22;4.40;99.90
2002;DHT22;1003;48.002;7.788;2023-02-10T15:47:11;4.40;99.90
2002;DHT22;1003;48.002;7.788;2023-02-10T15:49:48;4.30;99.90
2002;DHT22;1003;48.002;7.788;2023-02-10T15:52:21;4.20;99.90
2002;DHT22;1003;48.002;7.788;2023-02-10T15:54:50;4.20;99.90
2002;DHT22;1003;48.002;7.788;2023-02-10T15:57:20;4.10;99.90
2002;DHT22;1003;48.002;7.788;2023-02-10T15:59:47;4.10;99.90
2002;DHT22;1003;48.002;7.788;2023-02-10T16:02:16;4.00;99.90
2002;DHT22;1003;48.002;7.788;2023-02-10T16:04:44;3.90;99.90
2002;DHT22;1003;48.002;7.788;2023-02-10T16:07:19;3.80;99.90
2002;DHT22;1003;48.002;7.788;2023-02-10T16:09:49;3.80;99.90
2002;DHT22;1003;48.002;7.788;2023-02-10T16:12:16;3.70;99.90
2002;DHT22;1003;48.002;7.788;2023-02-10T16:14:45;3.60;99.90
2002;DHT22;1003;48.002;7.788;2023-02-10T16:17:19;3.50;99.90
2002;DHT22;1003;48.002;7.788;2023-02-10T16:19:48;3.40;99.90
2002;DHT22;1003;48.002;7.788;2023-02-10T16:22:15;3.40;99.90
2002;DHT22;1003;48.002;7.788;2023-02-10T16:24:42;3.30;99.90
2002;DHT22;1003;48.002;7.788;2023-02-10T16:27:10;3.20;99.90
2002;DHT22;1003;48.002;7.788;2023-02-10T16:29:37;3.10;99.90
2002;DHT22;1003;48.002;7.788;2023-02-10T16:32:06;3.00;99.90
2002;DHT22;1003;48.002;7.788;2023-02-10T16:34:34;2.90;99.90
2002;DHT22;1003;48.002;7.788;2023-02-10T16:37:02;2.70;99.90
2002;DHT22;1003;48.002;7.788;2023-02-10T16:39:29;2.60;99.90
2002;DHT22;1003;48.002;7.788;2023-02-10T16:41:56;2.40;99.90
2002;DHT22;1003;48.002;7.788;2023-02-10T16:44:23;2.30;99.90
2002;DHT22;1003;48.002;7.788;2023-02-10T16:46:50;2.10;99.90
2002;DHT22;1003;48.002;7.788;2023-02-10T16:49:18;2.00;99.90
2002;DHT22;1003;48.002;7.788;2023-02-10T16:51:46;1.90;99.90
2002;DHT22;1003;48.002;7.788;2023-02-10T16:54:14;1.80;99.90